createdAt,value
2018-02-22T00:00:32.772Z,41.40
2018-02-22T00:03:00.272Z,39.07
2018-02-22T00:05:27.797Z,38.70
2018-02-22T00:07:55.369Z,38.27
2018-02-22T00:10:22.847Z,38.00
2018-02-22T00:12:50.347Z,39.20
2018-02-22T00:15:17.832Z,42.63
2018-02-22T00:17:45.322Z,43.47
2018-02-22T00:20:12.816Z,39.47
2018-02-22T00:22:40.306Z,36.80
2018-02-22T00:25:07.863Z,37.67
2018-02-22T00:27:35.410Z,33.93
2018-02-22T00:30:02.904Z,34.73
2018-02-22T00:32:30.379Z,34.03
2018-02-22T00:34:57.915Z,34.20
2018-02-22T00:37:25.395Z,32.77
2018-02-22T00:39:53.651Z,33.37
2018-02-22T00:42:21.147Z,34.40
2018-02-22T00:44:48.644Z,35.63
2018-02-22T00:47:16.127Z,36.43
2018-02-22T00:49:43.627Z,36.93
2018-02-22T00:52:11.109Z,33.00
2018-02-22T00:54:38.616Z,34.23
2018-02-22T00:57:06.916Z,33.27
2018-02-22T00:59:34.395Z,33.73
2018-02-22T01:02:01.892Z,36.03
2018-02-22T01:04:29.429Z,33.67
2018-02-22T01:06:56.934Z,37.73
2018-02-22T01:09:24.470Z,32.67
2018-02-22T01:11:52.044Z,32.60
2018-02-22T01:14:19.583Z,36.63
2018-02-22T01:16:48.587Z,33.50
2018-02-22T01:19:16.067Z,35.97
2018-02-22T01:21:44.328Z,35.90
2018-02-22T01:24:11.848Z,38.63
2018-02-22T01:26:39.338Z,34.00
2018-02-22T01:29:06.831Z,33.37
2018-02-22T01:31:34.327Z,31.70
2018-02-22T01:34:02.579Z,35.17
2018-02-22T01:36:30.087Z,33.70
2018-02-22T01:38:57.566Z,32.07
2018-02-22T01:41:25.815Z,30.77
2018-02-22T01:43:53.311Z,30.77
2018-02-22T01:46:20.924Z,29.20
2018-02-22T01:48:48.463Z,31.60
2018-02-22T01:51:17.454Z,37.23
2018-02-22T01:53:45.759Z,33.70
2018-02-22T01:56:13.235Z,31.27
2018-02-22T01:58:41.495Z,32.87
2018-02-22T02:01:09.063Z,30.00
2018-02-22T02:03:36.563Z,31.83
2018-02-22T02:06:04.043Z,30.70
2018-02-22T02:08:32.303Z,32.63
2018-02-22T02:10:59.789Z,31.83
2018-02-22T02:13:27.358Z,32.57
2018-02-22T02:15:54.839Z,33.43
2018-02-22T02:18:23.149Z,32.83
2018-02-22T02:20:50.630Z,31.17
2018-02-22T02:23:18.154Z,32.00
2018-02-22T02:25:45.765Z,30.50
2018-02-22T02:28:13.255Z,31.40
2018-02-22T02:30:40.751Z,29.83
2018-02-22T02:33:08.244Z,31.50
2018-02-22T02:35:35.811Z,33.17
2018-02-22T02:38:04.059Z,29.67
2018-02-22T02:40:31.575Z,28.63
2018-02-22T02:42:59.147Z,29.77
2018-02-22T02:45:26.728Z,28.87
2018-02-22T02:47:55.041Z,29.07
2018-02-22T02:50:22.540Z,26.57
2018-02-22T02:52:50.028Z,29.27
2018-02-22T02:55:17.519Z,29.47
2018-02-22T02:57:45.006Z,28.63
2018-02-22T03:00:13.276Z,30.03
2018-02-22T03:02:42.291Z,28.97
2018-02-22T03:05:09.767Z,24.53
2018-02-22T03:07:38.028Z,24.27
2018-02-22T03:10:05.515Z,27.50
2018-02-22T03:12:33.087Z,28.10
2018-02-22T03:15:00.571Z,27.57
2018-02-22T03:17:28.832Z,25.90
2018-02-22T03:19:56.427Z,24.57
2018-02-22T03:22:24.699Z,29.13
2018-02-22T03:24:52.179Z,25.83
2018-02-22T03:27:19.676Z,24.97
2018-02-22T03:29:47.159Z,23.30
2018-02-22T03:32:14.659Z,26.33
2018-02-22T03:34:42.143Z,25.53
2018-02-22T03:37:09.636Z,28.47
2018-02-22T03:39:37.912Z,23.43
2018-02-22T03:42:05.492Z,28.17
2018-02-22T03:44:32.971Z,24.13
2018-02-22T03:47:01.285Z,27.17
2018-02-22T03:49:28.822Z,27.43
2018-02-22T03:51:56.299Z,25.13
2018-02-22T03:54:24.567Z,26.87
2018-02-22T03:56:52.051Z,27.10
2018-02-22T03:59:19.544Z,25.70
2018-02-22T04:01:47.787Z,24.13
2018-02-22T04:04:15.284Z,25.97
2018-02-22T04:06:43.530Z,24.40
2018-02-22T04:09:11.027Z,24.40
2018-02-22T04:11:38.511Z,25.50
2018-02-22T04:14:06.110Z,25.63
2018-02-22T04:16:33.647Z,27.27
2018-02-22T04:19:01.143Z,26.80
2018-02-22T04:21:29.392Z,25.83
2018-02-22T04:23:56.983Z,24.43
2018-02-22T04:26:24.467Z,24.30
2018-02-22T04:28:52.716Z,22.90
2018-02-22T04:31:20.207Z,23.73
2018-02-22T04:33:48.459Z,24.50
2018-02-22T04:36:15.971Z,24.83
2018-02-22T04:38:43.471Z,24.20
2018-02-22T04:41:10.981Z,25.60
2018-02-22T04:43:38.472Z,24.93
2018-02-22T04:46:05.971Z,25.00
2018-02-22T04:48:34.247Z,24.93
2018-02-22T04:51:02.511Z,26.37
2018-02-22T04:53:29.991Z,26.43
2018-02-22T04:55:57.485Z,27.97
2018-02-22T04:58:25.779Z,27.60
2018-02-22T05:00:54.043Z,31.90
2018-02-22T05:03:21.615Z,30.40
2018-02-22T05:05:49.111Z,27.30
2018-02-22T05:08:17.479Z,31.70
2018-02-22T05:10:44.990Z,35.27
2018-02-22T05:13:12.478Z,32.33
2018-02-22T05:15:39.980Z,29.83
2018-02-22T05:18:07.494Z,28.37
2018-02-22T05:20:35.065Z,44.37
2018-02-22T05:23:02.614Z,35.93
2018-02-22T05:25:30.862Z,26.03
2018-02-22T05:27:58.371Z,27.13
2018-02-22T05:30:26.631Z,22.83
2018-02-22T05:32:54.127Z,26.00
2018-02-22T05:35:22.390Z,27.27
2018-02-22T05:37:49.888Z,29.37
2018-02-22T05:40:17.372Z,28.60
2018-02-22T05:42:45.651Z,27.77
2018-02-22T05:45:13.149Z,31.33
2018-02-22T05:47:40.648Z,26.53
2018-02-22T05:50:08.135Z,24.10
2018-02-22T05:52:35.623Z,27.20
2018-02-22T05:55:03.123Z,34.93
2018-02-22T05:57:30.665Z,29.40
2018-02-22T05:59:58.164Z,25.80
2018-02-22T06:02:26.421Z,23.10
2018-02-22T06:04:54.724Z,29.97
2018-02-22T06:07:22.975Z,23.83
2018-02-22T06:09:50.472Z,25.50
2018-02-22T06:12:18.051Z,24.77
2018-02-22T06:14:45.552Z,21.70
2018-02-22T06:17:13.048Z,22.00
2018-02-22T06:19:40.548Z,24.10
2018-02-22T06:22:08.135Z,24.23
2018-02-22T06:24:35.638Z,28.40
2018-02-22T06:27:03.179Z,20.60
2018-02-22T06:29:30.683Z,23.47
2018-02-22T06:31:58.178Z,24.73
2018-02-22T06:34:25.659Z,55.93
2018-02-22T06:36:53.155Z,23.50
2018-02-22T06:39:20.637Z,23.50
2018-02-22T06:42:42.135Z,22.33
2018-02-22T06:45:09.640Z,23.53
2018-02-22T06:47:37.124Z,21.30
2018-02-22T06:50:04.688Z,19.10
2018-02-22T06:52:32.188Z,21.00
2018-02-22T06:54:59.684Z,18.57
2018-02-22T06:57:27.178Z,21.13
2018-02-22T06:59:54.663Z,19.33
2018-02-22T07:02:22.167Z,23.37
2018-02-22T07:04:50.410Z,21.93
2018-02-22T07:07:17.936Z,18.93
2018-02-22T07:09:45.479Z,26.83
2018-02-22T07:12:12.979Z,21.70
2018-02-22T07:14:40.514Z,19.03
2018-02-22T07:17:08.020Z,19.77
2018-02-22T07:19:35.698Z,22.20
2018-02-22T07:22:03.239Z,21.37
2018-02-22T07:24:30.716Z,21.70
2018-02-22T07:26:58.991Z,21.03
2018-02-22T07:29:26.567Z,18.73
2018-02-22T07:31:54.048Z,19.00
2018-02-22T07:34:21.546Z,20.90
2018-02-22T07:36:49.035Z,17.00
2018-02-22T07:39:16.528Z,20.43
2018-02-22T07:41:44.026Z,21.03
2018-02-22T07:44:11.538Z,19.20
2018-02-22T07:46:39.064Z,17.10
2018-02-22T07:49:07.386Z,19.17
2018-02-22T07:51:34.958Z,18.33
2018-02-22T07:54:02.447Z,20.47
2018-02-22T07:56:29.923Z,19.77
2018-02-22T07:58:57.423Z,20.83
2018-02-22T08:01:25.018Z,18.47
2018-02-22T08:03:52.616Z,18.17
2018-02-22T08:06:20.089Z,18.63
2018-02-22T08:08:47.624Z,19.87
2018-02-22T08:11:15.915Z,20.20
2018-02-22T08:13:44.198Z,20.57
2018-02-22T08:16:11.691Z,17.93
2018-02-22T08:18:39.931Z,17.77
2018-02-22T08:21:07.416Z,17.40
2018-02-22T08:23:34.887Z,14.60
2018-02-22T08:26:02.401Z,15.50
2018-02-22T08:28:29.974Z,17.20
2018-02-22T08:30:57.461Z,19.53
2018-02-22T08:33:24.927Z,13.63
2018-02-22T08:35:52.406Z,13.90
2018-02-22T08:38:19.878Z,15.10
2018-02-22T08:40:47.391Z,12.80
2018-02-22T08:43:14.863Z,16.63
2018-02-22T08:45:42.426Z,12.73
2018-02-22T08:48:09.895Z,12.00
2018-02-22T08:50:37.478Z,11.30
2018-02-22T08:53:04.979Z,12.20
2018-02-22T08:55:32.448Z,12.13
2018-02-22T08:57:59.930Z,11.53
2018-02-22T09:00:27.410Z,10.23
2018-02-22T09:02:54.923Z,13.80
2018-02-22T09:05:22.499Z,12.60
2018-02-22T09:07:49.991Z,13.77
2018-02-22T09:10:18.238Z,13.53
2018-02-22T09:12:45.731Z,14.07
2018-02-22T09:15:13.204Z,11.60
2018-02-22T09:17:40.763Z,14.23
2018-02-22T09:20:08.231Z,11.17
2018-02-22T09:22:35.718Z,10.67
2018-02-22T09:25:03.274Z,11.90
2018-02-22T09:27:30.788Z,11.37
2018-02-22T09:29:58.362Z,12.60
2018-02-22T09:32:25.854Z,11.60
2018-02-22T09:34:53.367Z,10.90
2018-02-22T09:37:20.943Z,11.00
2018-02-22T09:39:48.428Z,9.77
2018-02-22T09:42:16.732Z,12.60
2018-02-22T09:44:44.252Z,15.63
2018-02-22T09:47:11.742Z,13.87
2018-02-22T09:49:39.235Z,12.30
2018-02-22T09:52:07.476Z,11.10
2018-02-22T09:54:35.067Z,11.67
2018-02-22T09:57:02.551Z,17.57
2018-02-22T09:59:30.044Z,11.53
2018-02-22T10:01:57.519Z,13.13
2018-02-22T10:04:25.007Z,13.50
2018-02-22T10:06:52.523Z,15.93
2018-02-22T10:09:20.022Z,12.63
2018-02-22T10:11:48.319Z,15.67
2018-02-22T10:14:15.890Z,13.23
2018-02-22T10:16:43.462Z,10.80
2018-02-22T10:19:11.033Z,12.40
2018-02-22T10:21:38.527Z,11.70
2018-02-22T10:24:06.006Z,12.37
2018-02-22T10:26:33.648Z,12.53
2018-02-22T10:29:01.150Z,13.50
2018-02-22T10:31:28.646Z,11.87
2018-02-22T10:33:56.160Z,11.33
2018-02-22T10:36:23.672Z,12.63
2018-02-22T10:38:51.155Z,14.93
2018-02-22T10:41:18.750Z,11.23
2018-02-22T10:43:47.026Z,11.83
2018-02-22T10:46:15.295Z,10.23
2018-02-22T10:48:42.779Z,12.63
2018-02-22T10:51:10.290Z,9.27
2018-02-22T10:53:37.831Z,9.47
2018-02-22T10:56:05.382Z,10.93
2018-02-22T10:58:32.906Z,11.03
2018-02-22T11:01:05.971Z,10.13
2018-02-22T11:03:33.451Z,10.07
2018-02-22T11:06:00.933Z,13.30
2018-02-22T11:08:29.191Z,10.23
2018-02-22T11:10:56.775Z,14.00
2018-02-22T11:13:24.384Z,10.33
2018-02-22T11:15:51.919Z,14.97
2018-02-22T11:18:19.486Z,11.33
2018-02-22T11:20:47.062Z,12.07
2018-02-22T11:23:14.550Z,10.03
2018-02-22T11:25:42.791Z,8.47
2018-02-22T11:28:10.280Z,10.07
2018-02-22T11:30:37.750Z,10.10
2018-02-22T11:33:05.238Z,9.17
2018-02-22T11:35:33.483Z,10.43
2018-02-22T11:38:00.978Z,9.37
2018-02-22T11:40:28.565Z,9.47
2018-02-22T11:42:56.038Z,9.90
2018-02-22T11:45:24.297Z,9.33
2018-02-22T11:47:51.782Z,9.13
2018-02-22T11:50:19.272Z,11.43
2018-02-22T11:52:47.515Z,11.40
2018-02-22T11:55:15.043Z,10.97
2018-02-22T11:57:43.307Z,9.97
2018-02-22T12:00:10.798Z,10.40
2018-02-22T12:02:39.042Z,7.73
2018-02-22T12:05:06.604Z,8.10
2018-02-22T12:07:34.079Z,6.53
2018-02-22T12:10:01.559Z,8.80
2018-02-22T12:12:29.031Z,9.60
2018-02-22T12:14:56.623Z,7.67
2018-02-22T12:17:24.872Z,7.53
2018-02-22T12:19:52.342Z,8.00
2018-02-22T12:22:19.843Z,8.43
2018-02-22T12:24:47.315Z,7.57
2018-02-22T12:27:14.806Z,7.87
2018-02-22T12:29:43.075Z,7.27
2018-02-22T12:32:10.684Z,7.43
2018-02-22T12:34:38.162Z,7.83
2018-02-22T12:37:05.728Z,7.10
2018-02-22T12:39:33.206Z,7.00
2018-02-22T12:42:00.735Z,12.50
2018-02-22T12:44:28.206Z,9.00
2018-02-22T12:46:55.690Z,8.87
2018-02-22T12:49:23.958Z,8.93
2018-02-22T12:51:51.434Z,10.27
2018-02-22T12:54:18.910Z,6.70
2018-02-22T12:56:46.474Z,6.73
2018-02-22T12:59:14.049Z,7.50
2018-02-22T13:01:41.631Z,8.40
2018-02-22T13:04:09.882Z,7.03
2018-02-22T13:06:37.358Z,11.30
2018-02-22T13:09:04.845Z,7.77
2018-02-22T13:11:33.823Z,8.40
2018-02-22T13:14:01.331Z,7.40
2018-02-22T13:16:29.602Z,7.37
2018-02-22T13:18:57.086Z,6.60
2018-02-22T13:21:25.334Z,7.90
2018-02-22T13:23:52.819Z,7.67
2018-02-22T13:26:20.314Z,7.63
2018-02-22T13:28:47.802Z,7.30
2018-02-22T13:31:16.038Z,8.13
2018-02-22T13:33:55.419Z,7.27
2018-02-22T13:36:23.703Z,7.43
2018-02-22T13:39:02.978Z,7.77
2018-02-22T13:41:31.215Z,6.80
2018-02-22T13:44:10.806Z,7.00
2018-02-22T13:46:39.047Z,7.97
2018-02-22T13:49:18.398Z,8.17
2018-02-22T13:51:45.875Z,6.67
2018-02-22T13:54:13.370Z,8.17
2018-02-22T13:56:52.866Z,8.37
2018-02-22T13:59:20.358Z,7.37
2018-02-22T14:01:59.690Z,8.70
2018-02-22T14:04:27.196Z,10.60
2018-02-22T14:06:54.671Z,8.77
2018-02-22T14:09:22.147Z,7.30
2018-02-22T14:11:49.682Z,7.47
2018-02-22T14:14:17.886Z,7.33
2018-02-22T14:16:45.376Z,9.57
2018-02-22T14:19:12.842Z,7.73
2018-02-22T14:21:40.427Z,10.10
2018-02-22T14:24:07.894Z,9.20
2018-02-22T14:26:35.393Z,9.73
2018-02-22T14:29:03.663Z,9.57
2018-02-22T14:31:31.226Z,7.90
2018-02-22T14:33:58.756Z,7.57
2018-02-22T14:36:26.238Z,9.73
2018-02-22T14:38:53.765Z,11.27
2018-02-22T14:41:21.311Z,8.33
2018-02-22T14:43:48.789Z,8.80
2018-02-22T14:46:16.359Z,12.43
2018-02-22T14:48:43.826Z,8.80
2018-02-22T14:51:11.399Z,8.47
2018-02-22T14:53:38.878Z,9.63
2018-02-22T14:56:06.442Z,9.03
2018-02-22T14:58:34.021Z,10.60
2018-02-22T15:01:07.393Z,10.53
2018-02-22T15:03:34.932Z,10.27
2018-02-22T15:06:02.403Z,10.83
2018-02-22T15:08:29.896Z,9.17
2018-02-22T15:10:57.366Z,8.83
2018-02-22T15:13:24.913Z,10.63
2018-02-22T15:15:52.463Z,8.13
2018-02-22T15:18:20.715Z,7.47
2018-02-22T15:20:48.224Z,9.57
2018-02-22T15:23:15.678Z,8.40
2018-02-22T15:25:43.151Z,10.50
2018-02-22T15:28:10.647Z,9.33
2018-02-22T15:30:38.891Z,10.27
2018-02-22T15:33:06.482Z,11.60
2018-02-22T15:35:34.051Z,12.53
2018-02-22T15:38:01.619Z,9.13
2018-02-22T15:40:29.127Z,8.33
2018-02-22T15:42:56.701Z,8.73
2018-02-22T15:45:24.191Z,8.40
2018-02-22T15:47:51.743Z,9.90
2018-02-22T15:50:19.315Z,10.10
2018-02-22T15:52:46.888Z,10.73
2018-02-22T15:55:14.465Z,10.10
2018-02-22T15:57:41.995Z,10.53
2018-02-22T16:00:09.488Z,13.00
2018-02-22T16:02:37.723Z,10.53
2018-02-22T16:05:05.235Z,10.93
2018-02-22T16:07:32.798Z,9.20
2018-02-22T16:10:00.294Z,9.53
2018-02-22T16:12:28.532Z,10.60
2018-02-22T16:14:56.002Z,11.20
2018-02-22T16:17:23.486Z,13.60
2018-02-22T16:19:50.956Z,11.23
2018-02-22T16:22:18.441Z,9.37
2018-02-22T16:24:45.910Z,9.87
2018-02-22T16:27:13.613Z,10.20
2018-02-22T16:29:41.202Z,11.00
2018-02-22T16:32:08.758Z,10.77
2018-02-22T16:34:36.330Z,11.27
2018-02-22T16:37:03.815Z,10.43
2018-02-22T16:39:31.282Z,9.10
2018-02-22T16:41:58.767Z,10.17
2018-02-22T16:44:26.277Z,8.83
2018-02-22T16:46:53.787Z,11.57
2018-02-22T16:49:21.360Z,9.77
2018-02-22T16:51:48.931Z,11.13
2018-02-22T16:54:16.399Z,9.90
2018-02-22T16:56:43.872Z,10.37
2018-02-22T16:59:11.355Z,10.10
2018-02-22T17:01:38.888Z,11.20
2018-02-22T17:04:07.135Z,10.73
2018-02-22T17:06:34.635Z,9.40
2018-02-22T17:09:02.930Z,12.00
2018-02-22T17:11:30.515Z,10.00
2018-02-22T17:13:58.783Z,9.33
2018-02-22T17:16:26.255Z,11.17
2018-02-22T17:18:53.736Z,9.73
2018-02-22T17:21:21.966Z,9.20
2018-02-22T17:23:49.528Z,10.53
2018-02-22T17:26:22.763Z,9.00
2018-02-22T17:28:56.010Z,9.03
2018-02-22T17:31:29.262Z,8.30
2018-02-22T17:33:56.775Z,8.30
2018-02-22T17:36:34.951Z,9.03
2018-02-22T17:39:05.931Z,10.90
2018-02-22T17:41:38.346Z,11.80
2018-02-22T17:44:05.870Z,12.83
2018-02-22T17:46:33.347Z,14.40
2018-02-22T17:49:00.815Z,14.57
2018-02-22T17:51:28.356Z,15.57
2018-02-22T17:53:55.928Z,36.83
2018-02-22T17:56:23.419Z,13.10
2018-02-22T17:58:50.890Z,9.53
2018-02-22T18:01:18.363Z,12.20
2018-02-22T18:03:45.913Z,14.60
2018-02-22T18:06:13.386Z,11.03
2018-02-22T18:08:40.854Z,12.13
2018-02-22T18:11:08.347Z,12.50
2018-02-22T18:13:35.820Z,13.30
2018-02-22T18:16:03.362Z,19.30
2018-02-22T18:18:30.857Z,12.23
2018-02-22T18:20:58.324Z,14.37
2018-02-22T18:23:25.803Z,28.27
2018-02-22T18:25:53.351Z,20.10
2018-02-22T18:28:20.832Z,18.53
2018-02-22T18:30:48.391Z,17.97
2018-02-22T18:33:15.969Z,15.40
2018-02-22T18:35:43.502Z,15.37
2018-02-22T18:38:11.074Z,13.30
2018-02-22T18:40:44.355Z,13.20
2018-02-22T18:43:17.748Z,11.13
2018-02-22T18:45:45.250Z,9.77
2018-02-22T18:48:12.723Z,15.53
2018-02-22T18:50:41.734Z,12.00
2018-02-22T18:53:09.219Z,9.17
2018-02-22T18:55:37.490Z,11.83
2018-02-22T18:58:04.974Z,10.80
2018-02-22T19:00:33.227Z,8.63
2018-02-22T19:03:00.724Z,10.40
2018-02-22T19:05:28.199Z,10.97
2018-02-22T19:07:55.699Z,10.40
2018-02-22T19:10:23.163Z,8.03
2018-02-22T19:12:50.707Z,9.00
2018-02-22T19:15:18.199Z,14.43
2018-02-22T19:17:45.706Z,11.57
2018-02-22T19:20:13.183Z,10.90
2018-02-22T19:22:40.717Z,14.47
2018-02-22T19:25:08.971Z,13.83
2018-02-22T19:27:36.452Z,15.23
2018-02-22T19:30:03.985Z,18.33
2018-02-22T19:32:31.468Z,21.20
2018-02-22T19:34:58.955Z,17.63
2018-02-22T19:37:26.510Z,19.90
2018-02-22T19:39:54.015Z,21.53
2018-02-22T19:42:22.290Z,20.93
2018-02-22T19:44:49.791Z,25.33
2018-02-22T19:47:17.271Z,20.23
2018-02-22T19:49:44.743Z,35.67
2018-02-22T19:52:12.282Z,23.17
2018-02-22T19:54:40.563Z,22.67
2018-02-22T19:57:09.543Z,24.20
2018-02-22T19:59:37.140Z,25.87
2018-02-22T20:02:05.461Z,23.80
2018-02-22T20:04:32.942Z,22.70
2018-02-22T20:07:00.471Z,24.90
2018-02-22T20:09:28.039Z,25.63
2018-02-22T20:11:55.619Z,26.10
2018-02-22T20:14:23.187Z,23.90
2018-02-22T20:16:50.662Z,27.20
2018-02-22T20:20:47.102Z,33.10
2018-02-22T20:23:14.594Z,24.60
2018-02-22T20:25:42.158Z,24.13
2018-02-22T20:28:09.677Z,26.97
2018-02-22T20:30:37.150Z,23.60
2018-02-22T20:33:04.627Z,26.43
2018-02-22T20:35:32.166Z,26.73
2018-02-22T20:38:00.440Z,26.07
2018-02-22T20:40:28.687Z,24.73
2018-02-22T20:42:56.182Z,23.53
2018-02-22T20:45:23.658Z,23.53
2018-02-22T20:47:51.135Z,26.00
2018-02-22T20:50:18.628Z,24.67
2018-02-22T20:52:52.499Z,23.53
2018-02-22T20:55:21.826Z,22.03
2018-02-22T20:57:49.304Z,22.80
2018-02-22T21:00:16.788Z,25.77
2018-02-22T21:02:45.054Z,25.03
2018-02-22T21:05:12.535Z,25.40
2018-02-22T21:07:40.018Z,24.80
2018-02-22T21:10:08.335Z,22.03
2018-02-22T21:12:35.786Z,26.70
2018-02-22T21:15:04.039Z,28.20
2018-02-22T21:17:31.540Z,26.67
2018-02-22T21:19:59.819Z,25.80
2018-02-22T21:22:27.295Z,23.60
2018-02-22T21:24:54.872Z,26.43
2018-02-22T21:27:22.438Z,105.23
2018-02-22T21:29:49.922Z,27.97
2018-02-22T21:32:18.190Z,26.50
2018-02-22T21:34:47.184Z,29.00
2018-02-22T21:37:14.705Z,31.60
2018-02-22T21:39:42.211Z,27.53
2018-02-22T21:42:09.690Z,31.73
2018-02-22T21:44:37.171Z,32.90
2018-02-22T21:47:04.678Z,30.90
2018-02-22T21:49:32.927Z,26.80
2018-02-22T21:52:00.451Z,27.97
2018-02-22T21:54:27.942Z,29.00
2018-02-22T21:56:55.431Z,27.37
2018-02-22T21:59:22.963Z,44.93
2018-02-22T22:01:50.535Z,102.33
2018-02-22T22:04:18.071Z,29.20
2018-02-22T22:06:45.551Z,30.60
2018-02-22T22:09:13.838Z,35.57
2018-02-22T22:11:41.314Z,32.87
2018-02-22T22:14:09.563Z,30.00
2018-02-22T22:16:37.075Z,30.20
2018-02-22T22:19:05.319Z,29.70
2018-02-22T22:21:32.806Z,28.83
2018-02-22T22:24:00.391Z,28.80
2018-02-22T22:26:27.867Z,28.37
2018-02-22T22:28:55.368Z,29.33
2018-02-22T22:31:22.862Z,26.83
2018-02-22T22:33:50.343Z,29.37
2018-02-22T22:36:17.823Z,26.50
2018-02-22T22:38:46.140Z,25.83
2018-02-22T22:41:14.387Z,28.00
2018-02-22T22:43:41.924Z,27.50
2018-02-22T22:46:09.499Z,21.93
2018-02-22T22:48:36.978Z,21.13
2018-02-22T22:51:04.455Z,24.70
2018-02-22T22:53:31.955Z,23.33
2018-02-22T22:55:59.434Z,20.00
2018-02-22T22:58:26.912Z,21.37
2018-02-22T23:00:54.524Z,18.73
2018-02-22T23:03:22.059Z,20.47
2018-02-22T23:05:49.563Z,25.07
2018-02-22T23:08:17.066Z,19.07
2018-02-22T23:10:44.539Z,17.20
2018-02-22T23:13:12.078Z,19.10
2018-02-22T23:15:39.574Z,19.07
2018-02-22T23:18:07.056Z,18.93
2018-02-22T23:20:34.587Z,20.03
2018-02-22T23:23:02.081Z,18.67
2018-02-22T23:25:29.559Z,22.63
2018-02-22T23:27:57.036Z,20.37
2018-02-22T23:30:24.634Z,19.83
2018-02-22T23:32:52.120Z,18.63
2018-02-22T23:35:20.363Z,26.27
2018-02-22T23:37:47.884Z,26.30
2018-02-22T23:43:15.338Z,60.93
2018-02-22T23:45:42.875Z,80.77
2018-02-22T23:48:10.446Z,61.60
2018-02-22T23:50:37.956Z,64.77
2018-02-22T23:53:05.458Z,42.83
2018-02-22T23:55:32.957Z,39.00
2018-02-22T23:58:00.521Z,39.30
